Time;durP1;ratioP1;P1;durP2;ratioP2;P2;SDS_P1;SDS_P2;PMS_P1;PMS_P2;Temp;Humidity;BMP_temperature;BMP_pressure;BME280_temperature;BME280_humidity;BME280_pressure;Samples;Min_cycle;Max_cycle;Signal;HPM_P1;HPM_P2
2024/01/26 09:03:38;;;;;;;5.27;1.47;;;11.70;99.90;;;;;;2876139;23;20259;-77
2024/01/26 09:06:07;;;;;;;3.60;1.10;;;11.70;99.90;;;;;;4929681;29;20210;-76
2024/01/26 09:08:34;;;;;;;4.20;1.30;;;11.80;99.90;;;;;;4938209;29;20213;-80
2024/01/26 09:11:01;;;;;;;3.43;1.47;;;11.80;99.90;;;;;;4937575;29;20220;-79
2024/01/26 09:13:28;;;;;;;4.60;1.40;;;11.90;99.90;;;;;;4958078;29;20295;-80
2024/01/26 09:15:55;;;;;;;2.20;1.00;;;11.90;99.90;;;;;;4937269;29;20316;-77
2024/01/26 09:18:21;;;;;;;1.60;1.10;;;11.90;99.90;;;;;;4937752;29;20201;-78
2024/01/26 09:20:50;;;;;;;3.00;1.40;;;11.90;99.90;;;;;;4935053;29;20255;-78
2024/01/26 09:23:18;;;;;;;2.50;1.10;;;11.90;99.90;;;;;;4938782;29;20203;-81
2024/01/26 09:25:45;;;;;;;2.97;1.33;;;11.90;99.90;;;;;;4935655;29;20205;-85
2024/01/26 09:28:12;;;;;;;2.67;1.50;;;11.90;99.90;;;;;;4940479;29;20225;-77
2024/01/26 09:30:39;;;;;;;1.23;0.80;;;11.80;99.90;;;;;;4945173;29;20338;-80
2024/01/26 09:33:06;;;;;;;2.10;0.83;;;11.70;99.90;;;;;;4941800;29;20211;-81
2024/01/26 09:35:32;;;;;;;3.63;1.50;;;11.50;99.90;;;;;;4938673;29;20208;-79
2024/01/26 09:38:01;;;;;;;8.43;0.70;;;11.30;99.90;;;;;;4938692;29;20304;-78
2024/01/26 09:40:28;;;;;;;2.30;0.60;;;11.30;99.90;;;;;;4924489;29;20267;-80
2024/01/26 09:42:55;;;;;;;8.67;0.70;;;11.10;99.90;;;;;;4918844;29;20625;-79
2024/01/26 09:45:23;;;;;;;2.40;0.50;;;11.10;99.90;;;;;;4928034;29;20263;-78
2024/01/26 09:47:52;;;;;;;4.27;0.50;;;11.00;99.90;;;;;;4956441;29;20236;-79
2024/01/26 10:13:54;;;;;;;1.33;0.60;;;11.70;99.90;;;;;;4936151;29;20199;-79
2024/01/26 10:16:21;;;;;;;2.77;0.40;;;11.70;99.90;;;;;;4937300;29;20209;-79
2024/01/26 10:18:48;;;;;;;1.50;0.40;;;11.70;99.90;;;;;;4937712;29;20212;-79
2024/01/26 10:21:17;;;;;;;3.83;0.70;;;11.70;99.90;;;;;;4937378;29;20300;-78
2024/01/26 10:23:44;;;;;;;6.87;0.97;;;11.60;99.90;;;;;;4937082;29;20664;-78
2024/01/26 10:26:10;;;;;;;1.07;0.50;;;11.60;99.90;;;;;;4937492;29;20219;-80
2024/01/26 10:28:38;;;;;;;1.37;0.50;;;11.60;99.90;;;;;;4937490;29;20244;-79
2024/01/26 10:31:06;;;;;;;1.90;0.53;;;11.50;99.90;;;;;;4937914;29;20324;-79
2024/01/26 10:33:33;;;;;;;1.47;0.30;;;11.40;99.90;;;;;;4938372;29;20211;-79
2024/01/26 10:36:01;;;;;;;3.00;0.30;;;11.20;99.90;;;;;;4936608;29;20217;-79
2024/01/26 10:38:30;;;;;;;5.90;1.27;;;11.20;99.90;;;;;;4937312;29;20204;-83
2024/01/26 10:41:02;;;;;;;2.10;0.30;;;11.10;99.90;;;;;;4938018;29;20261;-80
2024/01/26 10:43:29;;;;;;;4.27;0.37;;;11.10;99.90;;;;;;4938047;29;20213;-81
2024/01/26 10:45:57;;;;;;;3.50;0.40;;;11.20;99.90;;;;;;4937967;29;20267;-83
2024/01/26 10:48:26;;;;;;;0.73;0.20;;;11.20;99.90;;;;;;4934739;29;20271;-79
2024/01/26 10:50:55;;;;;;;2.83;0.30;;;11.20;99.90;;;;;;4917768;29;20230;-75
2024/01/26 10:53:22;;;;;;;2.97;0.30;;;11.30;99.90;;;;;;4918819;29;20300;-87
2024/01/26 10:55:50;;;;;;;1.07;0.30;;;11.30;99.90;;;;;;4935491;29;20282;-84
2024/01/26 10:58:17;;;;;;;1.73;0.20;;;11.40;99.90;;;;;;4936752;29;20212;-81
2024/01/26 11:00:44;;;;;;;3.63;0.37;;;11.60;99.90;;;;;;4953715;28;20232;-81
2024/01/26 11:03:11;;;;;;;2.33;0.30;;;11.70;99.90;;;;;;4957673;29;20730;-84
2024/01/26 11:05:39;;;;;;;2.13;0.40;;;11.90;99.90;;;;;;4935194;29;20311;-79
2024/01/26 11:08:13;;;;;;;3.40;0.40;;;11.90;99.90;;;;;;4936604;29;20703;-79
2024/01/26 11:10:41;;;;;;;0.73;0.33;;;11.80;99.90;;;;;;4936603;29;20331;-81
2024/01/26 11:13:09;;;;;;;2.00;0.20;;;11.50;99.90;;;;;;4936027;29;20300;-81
2024/01/26 11:15:37;;;;;;;2.90;0.20;;;11.20;99.90;;;;;;4935803;29;20205;-80
2024/01/26 11:18:05;;;;;;;1.30;0.30;;;10.90;99.90;;;;;;4936496;29;20672;-79
2024/01/26 11:20:34;;;;;;;1.07;0.30;;;10.70;99.90;;;;;;4918766;29;20226;-82
2024/01/26 11:23:06;;;;;;;1.33;0.30;;;10.60;99.90;;;;;;4917199;29;20641;-82
2024/01/26 11:25:37;;;;;;;1.50;0.40;;;10.60;99.90;;;;;;4933927;29;20260;-80
2024/01/26 11:28:05;;;;;;;1.97;0.20;;;10.60;99.90;;;;;;4935129;29;20707;-80
2024/01/26 11:30:33;;;;;;;1.53;0.30;;;10.50;99.90;;;;;;4936405;29;20236;-82
2024/01/26 11:33:00;;;;;;;2.00;0.33;;;10.50;99.90;;;;;;4936974;29;20258;-83
2024/01/26 11:35:27;;;;;;;0.83;0.30;;;10.50;99.90;;;;;;4935172;29;20238;-82
2024/01/26 11:37:57;;;;;;;2.40;0.30;;;10.60;99.90;;;;;;4935756;29;20205;-79
2024/01/26 11:40:25;;;;;;;5.83;0.77;;;10.60;99.90;;;;;;4920555;29;20226;-80
2024/01/26 11:42:52;;;;;;;1.50;0.20;;;10.70;99.90;;;;;;4915843;29;20213;-81
2024/01/26 11:45:37;;;;;;;1.10;0.20;;;10.60;99.90;;;;;;4928883;29;20453;-80
2024/01/26 11:48:07;;;;;;;1.60;0.20;;;10.50;99.90;;;;;;4947216;29;20239;-81
2024/01/26 11:50:34;;;;;;;1.53;0.20;;;10.50;99.90;;;;;;4930233;29;20237;-80
2024/01/26 11:53:01;;;;;;;2.67;0.40;;;10.60;99.90;;;;;;4935555;29;20299;-80
2024/01/26 11:55:30;;;;;;;3.87;0.30;;;10.50;99.90;;;;;;4935501;29;20300;-81
2024/01/26 11:57:57;;;;;;;1.87;0.30;;;10.50;99.90;;;;;;4935224;29;20213;-80
2024/01/26 12:00:24;;;;;;;0.93;0.20;;;10.50;99.90;;;;;;4924443;29;20774;-81
2024/01/26 12:02:50;;;;;;;2.20;0.60;;;10.40;99.90;;;;;;4934176;29;20296;-80
2024/01/26 12:05:17;;;;;;;1.47;0.43;;;10.30;99.90;;;;;;4933344;29;20240;-80
2024/01/26 12:07:45;;;;;;;1.63;0.37;;;10.30;99.90;;;;;;4934959;29;20231;-80
2024/01/26 12:10:14;;;;;;;0.20;0.10;;;10.30;99.90;;;;;;4933032;29;20211;-80
2024/01/26 12:12:43;;;;;;;2.63;0.40;;;10.30;99.90;;;;;;4932196;29;20201;-80
2024/01/26 12:15:11;;;;;;;3.00;0.27;;;10.30;99.90;;;;;;4933203;29;20328;-80
2024/01/26 12:17:38;;;;;;;1.77;0.23;;;10.20;99.90;;;;;;4934876;29;20244;-80
2024/01/26 12:20:08;;;;;;;1.30;0.30;;;10.10;99.90;;;;;;4931520;29;20291;-80
2024/01/26 12:22:35;;;;;;;2.00;0.40;;;10.10;99.90;;;;;;4931610;29;20201;-80
2024/01/26 12:25:03;;;;;;;2.53;0.40;;;10.20;99.90;;;;;;4934014;29;20217;-80
2024/01/26 12:27:30;;;;;;;2.40;0.40;;;10.30;99.90;;;;;;4935053;29;20795;-80
2024/01/26 12:29:59;;;;;;;2.70;0.50;;;10.30;99.90;;;;;;4934915;29;20201;-81
2024/01/26 12:32:26;;;;;;;3.60;0.30;;;10.60;99.90;;;;;;4935462;29;20303;-82
2024/01/26 12:34:53;;;;;;;0.97;0.40;;;10.80;99.90;;;;;;4927214;29;20752;-80
2024/01/26 12:37:21;;;;;;;1.17;0.43;;;10.80;99.90;;;;;;4915580;29;20292;-80
2024/01/26 12:39:48;;;;;;;3.20;0.50;;;11.00;99.90;;;;;;4916133;29;20205;-81
2024/01/26 12:42:16;;;;;;;1.43;0.50;;;11.00;99.90;;;;;;4918962;29;20233;-82
2024/01/26 12:44:43;;;;;;;1.10;0.20;;;11.00;99.90;;;;;;4927878;29;20291;-79
2024/01/26 12:47:11;;;;;;;1.37;0.30;;;10.90;99.90;;;;;;4934327;29;20216;-75
2024/01/26 12:49:38;;;;;;;0.33;0.13;;;10.70;99.90;;;;;;4936141;29;20291;-75
2024/01/26 12:52:06;;;;;;;2.90;0.43;;;10.50;99.90;;;;;;4937768;29;20232;-77
2024/01/26 12:54:32;;;;;;;1.33;0.23;;;10.50;99.90;;;;;;4933073;29;20210;-75
2024/01/26 12:57:02;;;;;;;3.33;0.40;;;10.40;99.90;;;;;;4933137;29;20205;-75
2024/01/26 12:59:28;;;;;;;2.53;0.80;;;10.30;99.90;;;;;;4937096;29;20216;-75
2024/01/26 13:01:55;;;;;;;0.83;0.30;;;10.30;99.90;;;;;;4918935;29;20481;-75
2024/01/26 13:04:24;;;;;;;3.10;0.30;;;10.20;99.90;;;;;;4936232;29;20215;-74
2024/01/26 13:06:51;;;;;;;4.03;0.50;;;10.10;99.90;;;;;;4936470;29;20213;-75
2024/01/26 13:09:19;;;;;;;3.60;0.40;;;10.10;99.90;;;;;;4936719;29;20236;-74
2024/01/26 13:11:46;;;;;;;3.90;0.53;;;10.10;99.90;;;;;;4936056;29;20730;-74
2024/01/26 13:14:13;;;;;;;0.80;0.23;;;10.10;99.90;;;;;;4935866;29;20223;-74
2024/01/26 13:16:40;;;;;;;1.50;0.20;;;10.10;99.90;;;;;;4936180;29;20216;-75
2024/01/26 13:19:07;;;;;;;2.13;0.37;;;10.10;99.90;;;;;;4936137;29;20260;-75
2024/01/26 13:21:35;;;;;;;1.60;0.40;;;10.00;99.90;;;;;;4936389;29;20299;-74
2024/01/26 13:24:03;;;;;;;1.77;0.33;;;10.10;99.90;;;;;;4936756;29;20274;-74
2024/01/26 13:26:30;;;;;;;1.93;0.30;;;10.20;99.90;;;;;;4936589;29;20209;-75
2024/01/26 13:28:57;;;;;;;1.80;0.37;;;10.30;99.90;;;;;;4936255;29;20236;-74
2024/01/26 13:31:24;;;;;;;1.57;0.57;;;10.30;99.90;;;;;;4936687;29;20655;-74
2024/01/26 13:33:51;;;;;;;1.23;0.40;;;10.30;99.90;;;;;;4936600;29;20632;-74
2024/01/26 13:36:18;;;;;;;2.83;0.50;;;10.30;99.90;;;;;;4936207;29;20646;-74
2024/01/26 13:38:46;;;;;;;2.80;0.33;;;10.40;99.90;;;;;;4936302;29;20303;-74
2024/01/26 13:41:13;;;;;;;2.57;0.60;;;10.50;99.90;;;;;;4936186;29;20696;-74
2024/01/26 13:43:40;;;;;;;1.30;0.20;;;10.60;99.90;;;;;;4936065;29;20671;-73
2024/01/26 13:46:08;;;;;;;1.97;0.30;;;10.50;99.90;;;;;;4936411;29;20216;-74
2024/01/26 13:48:35;;;;;;;3.73;1.37;;;10.40;99.90;;;;;;4936854;29;20237;-74
2024/01/26 13:51:02;;;;;;;1.00;0.53;;;10.30;99.90;;;;;;4936016;29;20239;-77
2024/01/26 13:53:29;;;;;;;3.23;0.63;;;10.30;99.90;;;;;;4937127;29;20670;-74
2024/01/26 13:55:57;;;;;;;3.23;0.60;;;10.10;99.90;;;;;;4936817;29;20300;-74
2024/01/26 13:58:24;;;;;;;5.53;0.60;;;10.00;99.90;;;;;;4936800;29;20217;-75
2024/01/26 14:00:51;;;;;;;3.23;0.43;;;9.80;99.90;;;;;;4936545;29;20683;-74
2024/01/26 14:03:18;;;;;;;3.40;0.60;;;9.80;99.90;;;;;;4935944;29;20216;-74
2024/01/26 14:05:45;;;;;;;1.00;0.40;;;9.80;99.90;;;;;;4943633;23;20252;-74
2024/01/26 14:08:13;;;;;;;2.63;0.40;;;9.60;99.90;;;;;;4936615;29;20640;-73
2024/01/26 14:10:41;;;;;;;3.50;0.60;;;9.60;99.90;;;;;;4936183;29;20319;-73
2024/01/26 14:13:09;;;;;;;1.70;0.30;;;9.50;99.90;;;;;;4936301;29;20303;-73
2024/01/26 14:15:36;;;;;;;3.97;0.40;;;9.30;99.90;;;;;;4935897;29;20256;-74
2024/01/26 14:18:03;;;;;;;1.23;0.20;;;9.30;99.90;;;;;;4936650;29;20224;-73
2024/01/26 14:20:33;;;;;;;3.27;0.50;;;9.50;99.90;;;;;;4936365;29;20233;-73
2024/01/26 14:23:00;;;;;;;1.80;0.30;;;9.60;99.90;;;;;;4936364;29;20213;-73
2024/01/26 14:25:27;;;;;;;2.50;0.47;;;9.50;99.90;;;;;;4936089;29;20212;-73
2024/01/26 14:27:54;;;;;;;4.63;0.40;;;9.50;99.90;;;;;;4935709;29;20299;-75
2024/01/26 14:30:23;;;;;;;2.93;0.37;;;9.50;99.90;;;;;;4936131;29;20656;-73
2024/01/26 14:32:52;;;;;;;1.50;0.50;;;9.50;99.90;;;;;;4936466;29;20283;-73
2024/01/26 14:35:21;;;;;;;4.90;0.50;;;9.50;99.90;;;;;;4936388;29;20240;-82
2024/01/26 14:37:48;;;;;;;1.07;0.30;;;9.60;99.90;;;;;;4936303;29;20219;-73
2024/01/26 14:40:16;;;;;;;6.53;0.40;;;9.50;99.90;;;;;;4935161;29;20296;-74
2024/01/26 14:42:44;;;;;;;1.13;0.50;;;9.50;99.90;;;;;;4936055;29;20292;-74
2024/01/26 14:45:12;;;;;;;2.70;0.43;;;9.60;99.90;;;;;;4935760;29;20296;-76
2024/01/26 14:47:41;;;;;;;2.07;0.33;;;9.50;99.90;;;;;;4937423;29;20217;-82
2024/01/26 14:50:09;;;;;;;1.33;0.40;;;9.70;99.90;;;;;;4937057;29;20243;-81
2024/01/26 14:52:38;;;;;;;1.73;0.30;;;9.70;99.90;;;;;;4937538;29;20212;-83
2024/01/26 14:55:07;;;;;;;2.67;0.40;;;9.70;99.90;;;;;;4940140;29;20241;-74
2024/01/26 14:57:34;;;;;;;2.23;0.40;;;9.60;99.90;;;;;;4937302;29;20236;-82
2024/01/26 15:00:06;;;;;;;3.80;0.50;;;9.60;99.90;;;;;;4937253;29;20216;-77
2024/01/26 15:02:35;;;;;;;2.60;0.37;;;9.50;99.90;;;;;;4936359;29;20735;-81
2024/01/26 15:05:03;;;;;;;0.97;0.30;;;9.40;99.90;;;;;;4937324;29;20216;-80
2024/01/26 15:07:31;;;;;;;9.23;2.07;;;9.30;99.90;;;;;;4938990;29;20304;-74
2024/01/26 15:09:58;;;;;;;6.67;0.63;;;9.30;99.90;;;;;;4937655;29;20247;-81
2024/01/26 15:12:25;;;;;;;3.93;0.90;;;9.20;99.90;;;;;;4938724;29;20295;-81
2024/01/26 15:14:52;;;;;;;1.33;0.40;;;9.20;99.90;;;;;;4937821;29;20307;-78
2024/01/26 15:17:19;;;;;;;6.80;0.77;;;9.20;99.90;;;;;;4937693;29;20205;-83
2024/01/26 15:19:46;;;;;;;1.90;0.30;;;9.10;99.90;;;;;;4936937;29;20229;-79
2024/01/26 15:22:14;;;;;;;3.30;0.50;;;9.10;99.90;;;;;;4936613;29;20320;-79
2024/01/26 15:24:41;;;;;;;2.60;0.40;;;9.00;99.90;;;;;;4936521;29;20575;-82
2024/01/26 15:27:08;;;;;;;3.97;0.50;;;8.90;99.90;;;;;;4935911;29;20209;-81
2024/01/26 15:29:35;;;;;;;1.60;0.40;;;8.90;99.90;;;;;;4936370;29;20240;-78
2024/01/26 15:32:02;;;;;;;4.53;0.43;;;8.90;99.90;;;;;;4935502;29;20236;-81
2024/01/26 15:34:29;;;;;;;2.57;0.50;;;8.80;99.90;;;;;;4935812;29;20303;-83
2024/01/26 15:36:56;;;;;;;2.20;0.23;;;8.90;99.90;;;;;;4937703;29;20212;-83
2024/01/26 15:39:25;;;;;;;1.70;0.53;;;9.00;99.90;;;;;;4936481;29;20213;-77
2024/01/26 15:41:51;;;;;;;4.37;0.70;;;8.90;99.90;;;;;;4936271;29;20783;-77
2024/01/26 15:44:18;;;;;;;10.20;0.70;;;8.90;99.90;;;;;;4937789;29;20209;-72
2024/01/26 15:46:45;;;;;;;2.77;0.50;;;8.80;99.90;;;;;;4938788;29;20209;-75
2024/01/26 15:49:12;;;;;;;4.20;0.43;;;8.80;99.90;;;;;;4937247;29;20262;-74
2024/01/26 15:51:39;;;;;;;4.90;1.07;;;8.70;99.90;;;;;;4936440;29;20235;-81
2024/01/26 15:54:05;;;;;;;2.93;0.70;;;8.80;99.90;;;;;;4936577;29;20295;-74
2024/01/26 15:56:34;;;;;;;2.07;0.47;;;8.80;99.90;;;;;;4936525;29;20208;-76
2024/01/26 15:59:01;;;;;;;4.03;1.17;;;8.80;99.90;;;;;;4937178;29;20209;-75
2024/01/26 16:01:28;;;;;;;0.87;0.30;;;8.80;99.90;;;;;;4936895;29;20228;-83
2024/01/26 16:03:56;;;;;;;6.93;1.47;;;8.70;99.90;;;;;;4936541;29;20217;-81
2024/01/26 16:06:24;;;;;;;7.10;0.50;;;8.60;99.90;;;;;;4936800;29;20272;-75
2024/01/26 16:08:51;;;;;;;4.13;0.40;;;8.60;99.90;;;;;;4936326;29;20236;-76
2024/01/26 16:11:19;;;;;;;2.53;0.47;;;8.50;99.90;;;;;;4936312;29;20814;-78
2024/01/26 16:13:48;;;;;;;1.50;0.60;;;8.40;99.90;;;;;;4937251;29;20299;-83
2024/01/26 16:16:16;;;;;;;2.27;0.40;;;8.30;99.90;;;;;;4942504;29;20327;-76
2024/01/26 16:18:44;;;;;;;1.37;0.43;;;8.40;99.90;;;;;;4943067;29;20212;-80
2024/01/26 16:21:10;;;;;;;3.50;0.67;;;8.40;99.90;;;;;;4942309;29;20260;-81
2024/01/26 16:23:38;;;;;;;3.17;0.30;;;8.30;99.90;;;;;;4943324;29;20297;-76
2024/01/26 16:26:05;;;;;;;3.43;0.50;;;8.30;99.90;;;;;;4943608;29;20231;-77
2024/01/26 16:28:31;;;;;;;1.70;0.30;;;8.30;99.90;;;;;;4942858;29;20209;-73
2024/01/26 16:31:01;;;;;;;1.07;0.40;;;8.20;99.90;;;;;;4942841;29;20710;-73
2024/01/26 16:33:28;;;;;;;3.47;0.60;;;8.20;99.90;;;;;;4942644;29;20241;-73
2024/01/26 16:35:55;;;;;;;3.87;0.50;;;8.20;99.90;;;;;;4943904;29;20212;-72
2024/01/26 16:38:22;;;;;;;2.17;0.50;;;8.00;99.90;;;;;;4944289;29;20212;-74
2024/01/26 16:40:48;;;;;;;2.80;1.20;;;8.00;99.90;;;;;;4943158;29;20232;-73
2024/01/26 16:43:15;;;;;;;4.97;0.57;;;7.90;99.90;;;;;;4941613;29;20216;-80
2024/01/26 16:45:43;;;;;;;2.50;0.40;;;7.90;99.90;;;;;;4941377;29;20240;-77
2024/01/26 16:48:12;;;;;;;3.40;0.57;;;7.90;99.90;;;;;;4941346;29;20205;-73
2024/01/26 16:50:38;;;;;;;2.43;0.60;;;7.90;99.90;;;;;;4941469;29;20268;-73
2024/01/26 16:53:05;;;;;;;4.93;0.97;;;7.80;99.90;;;;;;4941359;29;20208;-72
2024/01/26 16:55:32;;;;;;;3.33;0.50;;;7.80;99.90;;;;;;4941697;29;20220;-74
2024/01/26 16:57:59;;;;;;;2.97;0.40;;;7.80;99.90;;;;;;4941651;29;20595;-73
2024/01/26 17:00:26;;;;;;;1.97;0.50;;;7.80;99.90;;;;;;4942145;29;20327;-81
2024/01/26 17:02:56;;;;;;;1.90;0.53;;;7.90;99.90;;;;;;4941536;29;20295;-74
2024/01/26 17:05:25;;;;;;;1.47;0.60;;;7.90;99.90;;;;;;4938917;29;20279;-74
2024/01/26 17:07:52;;;;;;;1.20;0.43;;;7.70;99.90;;;;;;4939021;29;20608;-76
2024/01/26 17:10:19;;;;;;;19.60;1.10;;;7.70;99.90;;;;;;4935880;29;20237;-82
2024/01/26 17:12:46;;;;;;;1.67;0.70;;;7.60;99.90;;;;;;4939992;29;20201;-79
2024/01/26 17:15:13;;;;;;;1.90;0.80;;;7.60;99.90;;;;;;4941375;29;20653;-79
2024/01/26 17:17:40;;;;;;;4.57;0.60;;;7.50;99.90;;;;;;4940948;29;20205;-81
2024/01/26 17:20:08;;;;;;;3.87;1.20;;;7.40;99.90;;;;;;4940926;29;20666;-78
2024/01/26 17:22:37;;;;;;;2.47;0.60;;;7.50;99.90;;;;;;4941071;29;20632;-78
2024/01/26 17:25:04;;;;;;;3.67;0.60;;;7.50;99.90;;;;;;4941025;29;20702;-81
2024/01/26 17:27:32;;;;;;;5.17;0.63;;;7.40;99.90;;;;;;4937171;29;20215;-79
2024/01/26 17:29:59;;;;;;;3.90;0.80;;;7.50;99.90;;;;;;4938138;29;20587;-80
2024/01/26 17:32:26;;;;;;;5.17;0.80;;;7.50;99.90;;;;;;4938212;29;20201;-84
2024/01/26 17:34:52;;;;;;;3.27;0.80;;;7.50;99.90;;;;;;4934681;29;20219;-76
2024/01/26 17:37:19;;;;;;;3.23;0.50;;;7.40;99.90;;;;;;4935724;29;20201;-82
2024/01/26 17:39:47;;;;;;;6.10;0.53;;;7.40;99.90;;;;;;4935209;29;20216;-82
2024/01/26 17:42:14;;;;;;;4.20;0.70;;;7.30;99.90;;;;;;4936199;29;20229;-78
2024/01/26 17:44:42;;;;;;;1.93;0.70;;;7.30;99.90;;;;;;4931186;29;20209;-74
2024/01/26 17:47:09;;;;;;;3.20;0.70;;;7.20;99.90;;;;;;4930133;29;20212;-78
2024/01/26 17:49:36;;;;;;;1.63;0.73;;;7.20;99.90;;;;;;4929736;29;20232;-81
2024/01/26 17:52:02;;;;;;;1.10;0.50;;;7.20;99.90;;;;;;4931634;29;20311;-78
2024/01/26 17:54:30;;;;;;;6.90;0.83;;;7.20;99.90;;;;;;4936307;29;20292;-78
2024/01/26 17:56:58;;;;;;;2.30;0.40;;;7.20;99.90;;;;;;4932841;29;20664;-77
2024/01/26 17:59:25;;;;;;;2.23;0.50;;;7.20;99.90;;;;;;4931339;29;20291;-85
2024/01/26 18:01:52;;;;;;;1.43;0.60;;;7.10;99.90;;;;;;4932712;29;20292;-76
2024/01/26 18:04:19;;;;;;;1.87;0.60;;;7.10;99.90;;;;;;4934746;29;20209;-83
2024/01/26 18:06:46;;;;;;;5.80;1.10;;;7.10;99.90;;;;;;4936573;29;20232;-80
2024/01/26 18:09:13;;;;;;;2.03;0.70;;;7.00;99.90;;;;;;4937287;29;20213;-78
2024/01/26 18:11:39;;;;;;;5.13;1.13;;;6.90;99.90;;;;;;4934399;29;20233;-74
2024/01/26 18:14:07;;;;;;;2.87;1.07;;;6.80;99.90;;;;;;4934907;29;20211;-76
2024/01/26 18:16:37;;;;;;;2.60;0.77;;;6.70;99.90;;;;;;4934722;29;20209;-81
2024/01/26 18:19:03;;;;;;;3.37;1.33;;;6.70;99.90;;;;;;4934192;29;20204;-82
2024/01/26 18:21:32;;;;;;;3.77;1.10;;;6.70;99.90;;;;;;4936247;29;20228;-78
2024/01/26 18:23:59;;;;;;;2.27;1.20;;;6.60;99.90;;;;;;4933135;29;20208;-84
2024/01/26 18:26:26;;;;;;;2.83;0.83;;;6.60;99.90;;;;;;4937227;29;20205;-82
2024/01/26 18:28:53;;;;;;;3.10;1.57;;;6.50;99.90;;;;;;4936437;29;20215;-77
2024/01/26 18:31:21;;;;;;;6.07;2.70;;;6.50;99.90;;;;;;4937204;29;20319;-84
2024/01/26 18:33:48;;;;;;;3.00;1.37;;;6.40;99.90;;;;;;4935861;29;20667;-84
2024/01/26 18:36:14;;;;;;;5.17;1.77;;;6.10;99.90;;;;;;4937651;29;20212;-83
2024/01/26 18:38:43;;;;;;;5.23;1.30;;;6.00;99.90;;;;;;4932887;29;20299;-76
2024/01/26 18:41:24;;;;;;;4.90;1.20;;;5.90;99.90;;;;;;4931346;29;20232;-81
2024/01/26 18:43:51;;;;;;;1.83;0.80;;;5.80;99.90;;;;;;4934036;29;20296;-80
2024/01/26 18:46:17;;;;;;;5.93;1.87;;;5.90;99.90;;;;;;4931467;29;20215;-83
2024/01/26 18:48:46;;;;;;;5.73;1.27;;;5.80;99.90;;;;;;4943126;29;20215;-80
2024/01/26 18:51:14;;;;;;;4.37;1.90;;;5.80;99.90;;;;;;4953048;29;20353;-78
2024/01/26 18:53:41;;;;;;;2.97;1.30;;;5.70;99.90;;;;;;4953564;29;20300;-75
2024/01/26 18:56:08;;;;;;;4.13;1.80;;;5.70;99.90;;;;;;4951482;29;20567;-80
2024/01/26 18:58:35;;;;;;;5.10;1.97;;;5.70;99.90;;;;;;4954379;29;20239;-76
2024/01/26 19:01:02;;;;;;;5.70;2.03;;;5.50;99.90;;;;;;4952041;29;20216;-79
2024/01/26 19:03:28;;;;;;;9.10;2.30;;;5.40;99.90;;;;;;4946624;29;20239;-78
2024/01/26 19:05:57;;;;;;;7.23;3.00;;;5.40;99.90;;;;;;4944497;29;20303;-82
2024/01/26 19:08:23;;;;;;;5.60;2.40;;;5.40;99.90;;;;;;4937002;29;20216;-76
2024/01/26 19:10:50;;;;;;;8.70;3.07;;;5.40;99.90;;;;;;4935790;29;20237;-80
2024/01/26 19:13:17;;;;;;;8.27;2.90;;;5.30;99.90;;;;;;4935693;29;20718;-79
2024/01/26 19:15:45;;;;;;;5.60;2.20;;;5.20;99.90;;;;;;4935048;29;20212;-81
2024/01/26 19:18:16;;;;;;;7.97;2.83;;;5.20;99.90;;;;;;4937099;29;20212;-78
2024/01/26 19:20:43;;;;;;;7.83;2.90;;;5.20;99.90;;;;;;4933426;29;20260;-80
2024/01/26 19:23:11;;;;;;;9.70;3.17;;;5.20;99.90;;;;;;4934270;29;20229;-83
2024/01/26 19:25:39;;;;;;;8.27;2.10;;;5.20;99.90;;;;;;4936059;29;20648;-80
2024/01/26 19:28:06;;;;;;;7.30;2.07;;;5.30;99.90;;;;;;4936418;29;20279;-85
2024/01/26 19:30:35;;;;;;;5.00;1.83;;;5.30;99.90;;;;;;4930948;29;20319;-74
2024/01/26 19:33:03;;;;;;;9.20;3.20;;;5.20;99.90;;;;;;4936653;29;20209;-74
2024/01/26 19:35:30;;;;;;;5.90;2.10;;;5.20;99.90;;;;;;4935714;29;20221;-85
2024/01/26 19:37:57;;;;;;;7.37;2.40;;;5.10;99.90;;;;;;4936524;29;20216;-84
2024/01/26 19:40:25;;;;;;;9.23;3.07;;;5.00;99.90;;;;;;4933856;29;20229;-82
2024/01/26 19:42:52;;;;;;;7.07;1.90;;;5.10;99.90;;;;;;4933592;29;20208;-78
2024/01/26 19:45:20;;;;;;;8.13;3.07;;;5.00;99.90;;;;;;4934613;29;20228;-85
2024/01/26 19:47:47;;;;;;;6.40;2.20;;;5.00;99.90;;;;;;4935624;29;20201;-81
2024/01/26 19:50:14;;;;;;;9.77;2.73;;;5.00;99.90;;;;;;4934034;29;20233;-80
2024/01/26 19:52:43;;;;;;;13.33;2.57;;;5.00;99.90;;;;;;4934202;29;20571;-78
2024/01/26 19:55:10;;;;;;;4.53;3.17;;;5.00;99.90;;;;;;4936070;29;20209;-82
2024/01/26 19:57:38;;;;;;;5.57;2.63;;;5.10;99.90;;;;;;4931368;29;20209;-77
2024/01/26 20:00:08;;;;;;;6.57;2.13;;;5.20;99.90;;;;;;4918169;29;20304;-79
2024/01/26 20:02:35;;;;;;;3.73;1.90;;;5.20;99.90;;;;;;4934681;29;20244;-83
2024/01/26 20:05:02;;;;;;;8.03;1.53;;;5.10;99.90;;;;;;4934301;29;20219;-75
2024/01/26 20:07:29;;;;;;;5.87;2.00;;;5.10;99.90;;;;;;4933072;29;20209;-85
2024/01/26 20:09:56;;;;;;;3.60;1.80;;;5.10;99.90;;;;;;4935330;29;20244;-81
2024/01/26 20:12:23;;;;;;;7.53;1.80;;;5.10;99.90;;;;;;4935896;29;20703;-78
2024/01/26 20:14:51;;;;;;;3.33;1.33;;;5.00;99.90;;;;;;4934892;29;20217;-75
2024/01/26 20:17:18;;;;;;;5.93;1.90;;;5.00;99.90;;;;;;4926371;29;20676;-83
2024/01/26 20:19:45;;;;;;;9.63;2.00;;;4.90;99.90;;;;;;4933919;29;20226;-85
2024/01/26 20:22:12;;;;;;;7.50;1.90;;;4.90;99.90;;;;;;4935920;29;20229;-78
2024/01/26 20:24:39;;;;;;;6.80;1.80;;;4.90;99.90;;;;;;4934353;29;20589;-84
2024/01/26 20:27:06;;;;;;;6.60;1.97;;;4.90;99.90;;;;;;4935526;29;20834;-77
2024/01/26 20:29:32;;;;;;;3.53;1.40;;;4.90;99.90;;;;;;4934371;29;20299;-81
2024/01/26 20:32:01;;;;;;;4.80;1.90;;;4.80;99.90;;;;;;4934177;29;20323;-74
2024/01/26 20:34:27;;;;;;;3.63;1.33;;;4.80;99.90;;;;;;4934466;29;20204;-74
2024/01/26 20:36:54;;;;;;;3.53;1.50;;;4.90;99.90;;;;;;4934175;29;20219;-78
2024/01/26 20:39:22;;;;;;;6.23;1.97;;;4.80;99.90;;;;;;4930003;29;20216;-74
2024/01/26 20:41:51;;;;;;;4.23;1.63;;;4.80;99.90;;;;;;4927329;29;20236;-74
2024/01/26 20:44:18;;;;;;;5.90;1.43;;;4.80;99.90;;;;;;4934558;29;20213;-83
2024/01/26 20:46:45;;;;;;;4.20;1.40;;;4.80;99.90;;;;;;4933534;29;20219;-79
2024/01/26 20:49:14;;;;;;;8.27;1.27;;;4.80;99.90;;;;;;4932011;29;20305;-74
2024/01/26 20:51:41;;;;;;;2.70;1.37;;;4.70;99.90;;;;;;4926242;29;20603;-78
2024/01/26 20:54:06;;;;;;;3.47;1.60;;;4.50;99.90;;;;;;4931384;29;20209;-82
2024/01/26 20:56:33;;;;;;;4.77;1.87;;;4.50;99.90;;;;;;4932557;29;20212;-74
2024/01/26 20:59:00;;;;;;;4.07;1.43;;;4.50;99.90;;;;;;4934324;29;20576;-74
2024/01/26 21:01:28;;;;;;;2.70;1.10;;;4.50;99.90;;;;;;4932200;29;20324;-75
2024/01/26 21:03:56;;;;;;;6.37;2.07;;;4.50;99.90;;;;;;4937139;29;20213;-78
2024/01/26 21:06:24;;;;;;;8.87;1.97;;;4.50;99.90;;;;;;4950405;23;20219;-73
2024/01/26 21:08:52;;;;;;;10.87;1.90;;;4.40;99.90;;;;;;4934836;29;20369;-70
2024/01/26 21:11:19;;;;;;;3.63;1.50;;;4.40;99.90;;;;;;4936601;29;20248;-69
2024/01/26 21:13:46;;;;;;;5.63;2.20;;;4.40;99.90;;;;;;4938094;29;20224;-70
2024/01/26 21:16:13;;;;;;;5.37;1.70;;;4.50;99.90;;;;;;4937789;29;20553;-69
2024/01/26 21:18:39;;;;;;;7.60;1.77;;;4.50;99.90;;;;;;4934414;29;20853;-69
2024/01/26 21:21:07;;;;;;;5.47;1.70;;;4.40;99.90;;;;;;4936653;29;20229;-70
2024/01/26 21:23:35;;;;;;;2.53;1.27;;;4.40;99.90;;;;;;4935050;29;20606;-71
2024/01/26 21:26:03;;;;;;;3.47;1.43;;;4.40;99.90;;;;;;4935059;29;20296;-70
2024/01/26 21:28:30;;;;;;;4.17;1.93;;;4.40;99.90;;;;;;4936633;29;20232;-68
2024/01/26 21:30:57;;;;;;;6.40;1.87;;;4.40;99.90;;;;;;4937066;29;20714;-69
2024/01/26 21:33:25;;;;;;;8.47;1.87;;;4.30;99.90;;;;;;4934026;29;20209;-69
2024/01/26 21:35:52;;;;;;;3.50;2.07;;;4.40;99.90;;;;;;4935003;29;20217;-69
2024/01/26 21:38:18;;;;;;;4.47;2.03;;;4.30;99.90;;;;;;4940332;29;20315;-70
2024/01/26 21:40:47;;;;;;;6.07;1.60;;;4.30;99.90;;;;;;4936317;29;20221;-70
2024/01/26 21:43:14;;;;;;;8.87;1.50;;;4.30;99.90;;;;;;4935788;29;20205;-70
2024/01/26 21:45:40;;;;;;;4.87;2.07;;;4.40;99.90;;;;;;4927220;29;20331;-69
2024/01/26 21:48:10;;;;;;;3.17;1.60;;;4.30;99.90;;;;;;4931715;29;20220;-69
2024/01/26 21:50:38;;;;;;;3.10;1.20;;;4.30;99.90;;;;;;4928572;29;20327;-69
2024/01/26 21:53:05;;;;;;;4.27;1.23;;;4.30;99.90;;;;;;4935818;29;20233;-69
2024/01/26 21:55:32;;;;;;;4.87;1.60;;;4.30;99.90;;;;;;4928973;29;20228;-70
2024/01/26 21:58:00;;;;;;;3.23;1.23;;;4.40;99.90;;;;;;4928116;29;20201;-70
2024/01/26 22:00:27;;;;;;;6.17;1.37;;;4.40;99.90;;;;;;4926111;29;20327;-69
2024/01/26 22:02:54;;;;;;;9.37;1.53;;;4.40;99.90;;;;;;4931728;29;20209;-69
2024/01/26 22:05:21;;;;;;;4.70;1.50;;;4.30;99.90;;;;;;4926935;29;20206;-70
2024/01/26 22:07:48;;;;;;;8.40;1.10;;;4.40;99.90;;;;;;4928895;29;20584;-69
2024/01/26 22:10:15;;;;;;;12.73;1.37;;;4.30;99.90;;;;;;4926600;29;20211;-69
2024/01/26 22:12:41;;;;;;;10.70;1.93;;;4.30;99.90;;;;;;4926220;29;20252;-70
2024/01/26 22:15:10;;;;;;;3.30;1.37;;;4.30;99.90;;;;;;4929337;29;20672;-69
2024/01/26 22:17:37;;;;;;;19.93;4.10;;;4.30;99.90;;;;;;4927598;29;20506;-69
2024/01/26 22:20:05;;;;;;;4.07;1.20;;;4.20;99.90;;;;;;4927441;29;20210;-70